Time;durP1;ratioP1;P1;durP2;ratioP2;P2;SDS_P1;SDS_P2;PMS_P1;PMS_P2;Temp;Humidity;BMP_temperature;BMP_pressure;BME280_temperature;BME280_humidity;BME280_pressure;Samples;Min_cycle;Max_cycle;Signal;HPM_P1;HPM_P2
2023/11/23 00:01:37;;;;;;;11.23;6.40;;;13.20;99.90;;;13.35;100.00;102291.34;5112607;28;20063;-69
2023/11/23 00:04:06;;;;;;;16.60;7.30;;;13.30;99.90;;;13.53;100.00;102287.91;5112620;28;20047;-69
2023/11/23 00:06:34;;;;;;;14.52;6.43;;;13.30;99.90;;;13.47;100.00;102291.41;5112522;28;20576;-69
2023/11/23 00:09:05;;;;;;;15.55;7.53;;;13.30;99.90;;;13.51;100.00;102295.88;5112510;28;20043;-69
2023/11/23 00:11:35;;;;;;;22.20;6.65;;;13.30;99.90;;;13.52;100.00;102288.78;5112534;28;20039;-69
2023/11/23 00:14:04;;;;;;;11.40;5.80;;;13.30;99.90;;;13.56;100.00;102283.50;5112680;28;20040;-69
2023/11/23 00:16:33;;;;;;;16.33;6.97;;;13.40;99.90;;;13.56;100.00;102282.63;5112499;28;20039;-70
2023/11/23 00:19:01;;;;;;;16.10;6.50;;;13.40;99.90;;;13.53;100.00;102275.50;5112441;28;20578;-69
2023/11/23 00:21:29;;;;;;;16.33;6.45;;;13.30;99.90;;;13.54;100.00;102277.31;5114278;28;20099;-70
2023/11/23 00:23:58;;;;;;;19.67;7.07;;;13.30;99.90;;;13.42;100.00;102252.41;5116039;28;20036;-69
2023/11/23 00:26:26;;;;;;;18.40;7.10;;;13.30;99.90;;;13.61;100.00;102280.84;5116005;28;20040;-69
2023/11/23 00:29:00;;;;;;;19.80;7.00;;;13.30;99.90;;;13.65;100.00;102265.81;5116275;28;20118;-69
2023/11/23 00:31:29;;;;;;;17.83;7.15;;;13.40;99.90;;;13.60;100.00;102268.47;5097891;28;20047;-70
2023/11/23 00:33:57;;;;;;;17.23;6.47;;;13.40;99.90;;;13.60;100.00;102268.47;5116054;28;20044;-69
2023/11/23 00:36:26;;;;;;;13.48;5.70;;;13.30;99.90;;;13.62;100.00;102268.47;5116050;28;20074;-69
2023/11/23 00:38:54;;;;;;;15.57;6.38;;;13.40;99.90;;;13.45;100.00;102242.66;5116075;28;20039;-69
2023/11/23 00:41:22;;;;;;;18.08;6.35;;;13.30;99.90;;;13.55;100.00;102260.44;5115911;28;20066;-69
2023/11/23 00:43:51;;;;;;;15.77;6.30;;;13.30;99.90;;;13.54;100.00;102258.69;5097644;28;20497;-69
2023/11/23 00:46:20;;;;;;;16.25;6.28;;;13.30;99.90;;;13.40;100.00;102256.81;5115909;28;20044;-69
2023/11/23 00:48:49;;;;;;;20.57;6.60;;;13.20;99.90;;;13.51;100.00;102255.13;5097538;28;20051;-69
2023/11/23 00:51:18;;;;;;;24.38;7.38;;;13.30;99.90;;;13.45;100.00;102253.28;5115410;28;20143;-69
2023/11/23 00:53:46;;;;;;;17.73;6.55;;;13.30;99.90;;;13.49;100.00;102247.13;5115685;28;20458;-69
2023/11/23 00:56:16;;;;;;;14.80;6.65;;;13.30;99.90;;;13.58;100.00;102251.63;5115652;28;20047;-69
2023/11/23 00:58:45;;;;;;;17.45;6.55;;;13.30;99.90;;;13.60;100.00;102247.19;5115600;28;20553;-69
2023/11/23 01:01:15;;;;;;;17.65;6.85;;;13.40;99.90;;;13.64;100.00;102254.31;5115608;28;20067;-69
2023/11/23 01:03:45;;;;;;;17.17;6.80;;;13.50;99.90;;;13.66;100.00;102252.53;5115328;28;20046;-68
2023/11/23 01:06:14;;;;;;;16.13;6.63;;;13.40;99.90;;;13.62;100.00;102252.50;5097512;28;20071;-69
2023/11/23 01:08:42;;;;;;;15.10;6.43;;;13.40;99.90;;;13.63;100.00;102246.34;5115448;28;20047;-69
2023/11/23 01:11:11;;;;;;;19.50;6.93;;;13.40;99.90;;;13.71;100.00;102249.88;5115390;28;20039;-69
2023/11/23 01:13:41;;;;;;;17.80;6.63;;;13.40;99.90;;;13.67;100.00;102243.66;5115117;28;20085;-69
2023/11/23 01:16:10;;;;;;;;;;;13.40;99.90;;;13.64;100.00;102233.03;5097439;28;20104;-68
2023/11/23 01:18:38;;;;;;;15.43;5.85;;;13.40;99.90;;;13.65;100.00;102239.22;5096962;28;19920;-69
2023/11/23 01:21:08;;;;;;;16.48;5.82;;;13.40;99.90;;;13.63;100.00;102235.69;5115181;28;20039;-69
2023/11/23 01:23:37;;;;;;;17.38;6.45;;;13.50;99.90;;;13.55;100.00;102233.88;5114915;28;20043;-69
2023/11/23 01:26:06;;;;;;;14.38;6.18;;;13.40;99.90;;;13.63;100.00;102236.56;5096763;28;20058;-68
2023/11/23 01:28:34;;;;;;;20.58;6.63;;;13.40;99.90;;;13.48;100.00;102233.81;5114750;28;20055;-69
2023/11/23 01:31:03;;;;;;;14.70;5.85;;;13.30;99.90;;;13.41;100.00;102230.22;5114718;28;20458;-69
2023/11/23 01:33:31;;;;;;;18.85;5.78;;;13.20;99.90;;;13.42;100.00;102237.34;5114845;28;20051;-68
2023/11/23 01:36:00;;;;;;;13.85;5.40;;;13.20;99.90;;;13.45;100.00;102232.03;5096567;28;20553;-68
2023/11/23 01:38:29;;;;;;;17.05;6.00;;;13.20;99.90;;;13.34;100.00;102222.22;5096522;28;20064;-69
2023/11/23 01:40:58;;;;;;;18.00;5.40;;;13.10;99.90;;;13.42;100.00;102225.81;5114578;28;20039;-69
2023/11/23 01:43:26;;;;;;;10.48;5.03;;;13.20;99.90;;;13.38;100.00;102234.66;5114788;28;20043;-69
2023/11/23 01:45:54;;;;;;;17.85;5.75;;;13.10;99.90;;;13.33;100.00;102218.69;5114740;28;20065;-68
2023/11/23 01:48:23;;;;;;;14.57;5.78;;;13.10;99.90;;;13.46;100.00;102228.50;5114390;28;20377;-69
2023/11/23 01:50:53;;;;;;;16.17;5.55;;;13.20;99.90;;;13.46;100.00;102227.59;5096322;28;20043;-69
2023/11/23 01:53:22;;;;;;;19.63;6.28;;;13.20;99.90;;;13.49;100.00;102233.81;5114901;28;20100;-70
2023/11/23 01:55:51;;;;;;;15.05;5.72;;;13.20;99.90;;;13.49;100.00;102241.81;5096185;28;20043;-69
2023/11/23 01:58:21;;;;;;;15.95;6.10;;;13.20;99.90;;;13.50;100.00;102248.00;5095876;28;20055;-68
2023/11/23 02:00:51;;;;;;;15.73;6.03;;;13.20;99.90;;;13.40;100.00;102243.53;5096164;28;20135;-69
2023/11/23 02:03:20;;;;;;;14.75;5.43;;;13.10;99.90;;;13.41;100.00;102238.19;5096086;28;20051;-68
2023/11/23 02:05:49;;;;;;;15.43;6.05;;;13.20;99.90;;;13.40;100.00;102233.78;5096123;28;20074;-69
2023/11/23 02:08:17;;;;;;;14.85;5.63;;;13.10;99.90;;;13.41;100.00;102237.34;5114287;28;20407;-68
2023/11/23 02:10:45;;;;;;;22.73;6.60;;;13.20;99.90;;;13.39;100.00;102239.97;5114259;28;20048;-70
2023/11/23 02:13:16;;;;;;;15.32;5.95;;;13.10;99.90;;;13.17;100.00;102215.91;5095914;28;20052;-69
2023/11/23 02:15:44;;;;;;;23.27;6.10;;;13.10;99.90;;;13.32;100.00;102243.47;5095881;28;20118;-69
2023/11/23 02:18:13;;;;;;;17.60;5.95;;;13.00;99.90;;;13.27;100.00;102234.59;5096097;28;20147;-69
2023/11/23 02:20:43;;;;;;;15.48;5.40;;;13.00;99.90;;;13.29;100.00;102240.81;5095806;28;20055;-69
2023/11/23 02:23:11;;;;;;;16.88;5.80;;;13.00;99.90;;;13.34;100.00;102247.03;5095738;28;20146;-69
2023/11/23 02:25:42;;;;;;;15.40;6.30;;;13.10;99.90;;;13.33;100.00;102239.97;5113999;28;20097;-69
2023/11/23 02:28:10;;;;;;;12.93;6.32;;;13.10;99.90;;;13.18;100.00;102207.94;5113743;28;20062;-69
2023/11/23 02:30:39;;;;;;;13.90;6.25;;;13.10;99.90;;;13.41;100.00;102234.69;5113906;28;20043;-69
2023/11/23 02:33:10;;;;;;;15.10;6.30;;;13.20;99.90;;;13.49;100.00;102238.28;5113610;28;20393;-69
2023/11/23 02:35:38;;;;;;;11.52;6.05;;;13.20;99.90;;;13.43;100.00;102239.09;5113803;28;20047;-68
2023/11/23 02:38:07;;;;;;;14.90;6.18;;;13.20;99.90;;;13.41;100.00;102235.53;5095483;28;20040;-69
2023/11/23 02:40:35;;;;;;;17.98;6.03;;;13.10;99.90;;;13.31;100.00;102223.09;5113874;28;20043;-68
2023/11/23 02:43:06;;;;;;;12.02;5.45;;;13.10;99.90;;;13.22;100.00;102231.00;5113068;28;20446;-69
2023/11/23 02:45:35;;;;;;;12.40;5.45;;;13.00;99.90;;;12.63;100.00;102126.09;5113460;28;20040;-68
2023/11/23 02:48:04;;;;;;;12.02;5.57;;;13.00;99.90;;;13.19;100.00;102236.31;5113602;28;20067;-69
2023/11/23 02:50:33;;;;;;;11.35;5.05;;;13.00;99.90;;;13.24;100.00;102233.69;5095379;28;20059;-69
2023/11/23 02:53:03;;;;;;;13.20;5.10;;;13.00;99.90;;;13.17;100.00;102230.09;5113574;28;20126;-69
2023/11/23 02:55:32;;;;;;;15.13;5.20;;;12.90;99.90;;;12.46;100.00;102099.44;5095104;28;20112;-69
2023/11/23 02:58:00;;;;;;;10.32;4.85;;;13.00;99.90;;;13.23;100.00;102227.47;5094937;28;20357;-69
2023/11/23 03:00:33;;;;;;;15.38;5.30;;;13.00;99.90;;;13.24;100.00;102226.59;5095254;28;20050;-69
2023/11/23 03:03:01;;;;;;;10.50;5.07;;;13.00;99.90;;;13.23;100.00;102226.59;5113220;28;20043;-69
2023/11/23 03:05:31;;;;;;;16.00;5.32;;;13.00;99.90;;;13.22;100.00;102227.47;5113164;28;20046;-69
2023/11/23 03:07:59;;;;;;;15.73;5.55;;;13.00;99.90;;;13.18;100.00;102221.22;5113430;28;20052;-69
2023/11/23 03:10:27;;;;;;;13.40;5.43;;;12.90;99.90;;;13.18;100.00;102215.91;5113009;28;20036;-69
2023/11/23 03:12:56;;;;;;;16.40;5.65;;;13.00;99.90;;;13.11;100.00;102221.19;5113362;28;20036;-69
2023/11/23 03:15:24;;;;;;;18.63;6.20;;;13.00;99.90;;;13.16;100.00;102216.81;5113207;28;20047;-69
2023/11/23 03:17:54;;;;;;;13.52;5.30;;;13.00;99.90;;;13.22;100.00;102228.34;5113197;28;20052;-69
2023/11/23 03:20:23;;;;;;;12.10;5.40;;;13.00;99.90;;;13.02;100.00;102192.78;5094944;28;20054;-69
2023/11/23 03:22:51;;;;;;;13.80;5.32;;;13.00;99.90;;;13.27;100.00;102234.59;5112972;28;20512;-69
2023/11/23 03:25:19;;;;;;;16.33;6.32;;;13.00;99.90;;;13.23;100.00;102219.50;5113253;28;20052;-69
2023/11/23 03:27:48;;;;;;;17.52;6.43;;;13.00;99.90;;;13.27;100.00;102226.63;5113198;28;20060;-69
2023/11/23 03:30:16;;;;;;;15.75;5.90;;;13.00;99.90;;;13.25;100.00;102227.47;5112869;28;20105;-69
2023/11/23 03:32:45;;;;;;;15.00;6.43;;;13.00;99.90;;;13.11;100.00;102190.19;5113158;28;20112;-69
2023/11/23 03:35:15;;;;;;;15.20;5.90;;;13.00;99.90;;;13.29;100.00;102219.56;5094833;28;20047;-69
2023/11/23 03:37:43;;;;;;;10.90;5.97;;;13.00;99.90;;;13.22;100.00;102216.84;5094795;28;20200;-69
2023/11/23 03:40:12;;;;;;;23.35;6.60;;;13.00;99.90;;;13.24;100.00;102213.31;5113112;28;20104;-69
2023/11/23 03:42:41;;;;;;;17.20;6.20;;;13.00;99.90;;;13.26;100.00;102214.19;5112800;28;20499;-69
2023/11/23 03:45:10;;;;;;;14.65;5.70;;;13.00;99.90;;;13.30;100.00;102210.69;5112804;28;20441;-69
2023/11/23 03:47:38;;;;;;;18.70;6.35;;;13.00;99.90;;;13.29;100.00;102206.25;5113037;28;20393;-69
2023/11/23 03:50:10;;;;;;;19.45;6.13;;;13.00;99.90;;;13.16;100.00;102203.53;5094685;28;20056;-69
2023/11/23 03:52:40;;;;;;;15.32;6.05;;;13.00;99.90;;;13.23;100.00;102205.31;5112825;28;20119;-69
2023/11/23 03:55:09;;;;;;;12.48;5.30;;;13.00;99.90;;;13.21;100.00;102205.31;5112681;28;20100;-69
2023/11/23 03:57:39;;;;;;;20.40;5.88;;;13.00;99.90;;;13.10;100.00;102201.72;5097894;28;20181;-68
2023/11/23 04:00:08;;;;;;;18.30;5.88;;;12.90;99.90;;;13.04;100.00;102201.69;5116621;28;20463;-69
2023/11/23 04:02:37;;;;;;;16.25;6.18;;;12.80;99.90;;;13.06;100.00;102209.66;5116488;28;20044;-69
2023/11/23 04:05:07;;;;;;;15.55;5.75;;;12.80;99.90;;;13.12;100.00;102205.28;5116791;28;20094;-69
2023/11/23 04:07:35;;;;;;;15.57;6.53;;;12.90;99.90;;;13.20;100.00;102206.19;5098106;28;20071;-69
2023/11/23 04:10:07;;;;;;;16.15;6.25;;;12.90;99.90;;;13.13;100.00;102191.09;5116312;28;20067;-69
2023/11/23 04:12:35;;;;;;;14.07;5.70;;;12.90;99.90;;;13.20;100.00;102200.00;5116873;28;20074;-69
2023/11/23 04:15:04;;;;;;;16.15;6.10;;;12.90;99.90;;;13.18;100.00;102194.66;5116275;28;20048;-69
2023/11/23 04:17:33;;;;;;;17.95;5.47;;;12.90;99.90;;;13.20;100.00;102198.22;5116327;28;20043;-69
2023/11/23 04:20:02;;;;;;;15.27;5.78;;;12.90;99.90;;;13.15;100.00;102189.34;5116458;28;20036;-69
2023/11/23 04:22:30;;;;;;;14.48;6.13;;;12.80;99.90;;;13.10;100.00;102195.50;5116122;28;20047;-69
2023/11/23 04:24:58;;;;;;;16.48;5.30;;;12.80;99.90;;;13.15;100.00;102199.06;5098103;28;20088;-69
2023/11/23 04:27:28;;;;;;;15.90;6.32;;;12.80;99.90;;;13.20;100.00;102202.66;5116267;28;20044;-69
2023/11/23 04:29:56;;;;;;;12.30;5.43;;;12.90;99.90;;;13.28;100.00;102207.13;5115900;28;20468;-69
2023/11/23 04:32:25;;;;;;;11.88;5.88;;;12.90;99.90;;;13.25;100.00;102207.13;5116182;28;20126;-69
2023/11/23 04:34:53;;;;;;;14.48;5.40;;;12.90;99.90;;;13.23;100.00;102207.97;5116132;28;20054;-69
2023/11/23 04:37:23;;;;;;;18.13;5.85;;;12.90;99.90;;;13.16;100.00;102212.34;5115725;28;20050;-69
2023/11/23 04:39:52;;;;;;;;;;;12.90;99.90;;;13.14;100.00;102205.28;5116830;28;20054;-69
2023/11/23 04:42:21;;;;;;;17.13;5.72;;;12.90;99.90;;;13.16;100.00;102207.03;5115717;28;19919;-69
2023/11/23 04:44:50;;;;;;;15.38;5.32;;;12.80;99.90;;;13.17;100.00;102206.19;5116003;28;20054;-69
2023/11/23 04:47:19;;;;;;;16.40;5.50;;;12.90;99.90;;;13.18;100.00;102197.31;5115610;28;20044;-69
2023/11/23 04:49:47;;;;;;;12.70;5.57;;;12.90;99.90;;;13.23;100.00;102202.66;5116166;28;20150;-69
2023/11/23 04:52:15;;;;;;;14.88;5.50;;;12.90;99.90;;;13.30;100.00;102212.44;5115520;28;20043;-70
2023/11/23 04:54:44;;;;;;;14.82;5.22;;;12.90;99.90;;;13.32;100.00;102214.25;5115485;28;20512;-69
2023/11/23 04:57:12;;;;;;;14.73;5.30;;;13.00;99.90;;;13.31;100.00;102217.78;5115349;28;20067;-69
2023/11/23 04:59:40;;;;;;;13.63;6.03;;;13.00;99.90;;;13.28;100.00;102206.22;5115189;28;20523;-69
2023/11/23 05:02:10;;;;;;;15.40;5.35;;;13.00;99.90;;;13.22;100.00;102201.78;5115356;28;20044;-69
2023/11/23 05:04:39;;;;;;;16.52;5.40;;;13.00;99.90;;;13.18;100.00;102202.63;5115577;28;20126;-69
2023/11/23 05:07:07;;;;;;;13.05;5.15;;;13.00;99.90;;;13.15;100.00;102204.38;5114800;28;20085;-70
2023/11/23 05:09:36;;;;;;;19.23;5.80;;;12.90;99.90;;;13.13;100.00;102195.50;5115175;28;20500;-69
2023/11/23 05:12:05;;;;;;;14.13;5.13;;;12.80;99.90;;;13.17;100.00;102192.91;5115215;28;20081;-70
2023/11/23 05:14:34;;;;;;;13.32;4.88;;;12.90;99.90;;;13.19;100.00;102198.22;5115134;28;20047;-70
2023/11/23 05:17:02;;;;;;;14.95;5.60;;;12.90;99.90;;;13.22;100.00;102196.47;5115268;28;20092;-70
2023/11/23 05:19:32;;;;;;;21.20;6.13;;;12.90;99.90;;;13.18;100.00;102197.31;5115298;28;20073;-70
2023/11/23 05:22:10;;;;;;;13.82;5.18;;;12.90;99.90;;;13.21;100.00;102193.81;5114992;28;20463;-69
2023/11/23 05:24:38;;;;;;;14.98;5.68;;;12.90;99.90;;;13.24;100.00;102188.53;5114912;28;20043;-69
2023/11/23 05:27:07;;;;;;;16.98;5.22;;;12.90;99.90;;;13.22;100.00;102180.50;5114800;28;20385;-69
2023/11/23 05:29:36;;;;;;;19.63;5.63;;;12.90;99.90;;;13.11;100.00;102163.63;5115196;28;20071;-69
2023/11/23 05:32:05;;;;;;;12.10;5.28;;;12.80;99.90;;;13.14;100.00;102178.72;5114710;28;20039;-69
2023/11/23 05:34:35;;;;;;;20.70;6.10;;;12.80;99.90;;;13.18;100.00;102193.78;5096667;28;20100;-69
2023/11/23 05:37:03;;;;;;;19.67;5.97;;;12.90;99.90;;;13.22;100.00;102187.63;5114698;28;20089;-70
2023/11/23 05:39:32;;;;;;;23.17;6.55;;;12.90;99.90;;;13.21;100.00;102185.81;5114929;28;20532;-69
2023/11/23 05:42:00;;;;;;;16.27;6.07;;;12.90;99.90;;;13.11;100.00;102171.59;5114529;28;20543;-69
2023/11/23 05:44:30;;;;;;;19.92;6.40;;;12.90;99.90;;;13.15;100.00;102165.44;5115018;28;20442;-70
2023/11/23 05:46:58;;;;;;;15.20;5.93;;;12.90;99.90;;;13.26;100.00;102177.00;5114963;28;20043;-69
2023/11/23 05:49:27;;;;;;;18.77;6.05;;;12.90;99.90;;;13.22;100.00;102158.41;5114630;28;20044;-69
2023/11/23 05:51:56;;;;;;;16.75;5.63;;;12.90;99.90;;;13.25;100.00;102161.94;5114330;28;20112;-69
2023/11/23 05:54:25;;;;;;;17.17;5.60;;;12.90;99.90;;;13.19;100.00;102175.19;5114291;28;20043;-69
2023/11/23 05:56:53;;;;;;;16.02;5.82;;;12.90;99.90;;;13.24;100.00;102167.25;5114135;28;20477;-69
2023/11/23 05:59:22;;;;;;;17.98;6.53;;;12.90;99.90;;;13.21;100.00;102169.88;5114025;28;20056;-69
2023/11/23 06:01:50;;;;;;;13.32;5.53;;;12.90;99.90;;;13.31;100.00;102158.44;5114350;28;20044;-69
2023/11/23 06:04:19;;;;;;;16.13;5.60;;;13.00;99.90;;;13.28;100.00;102156.63;5114396;28;20035;-69
2023/11/23 06:06:47;;;;;;;13.07;5.22;;;13.00;99.90;;;12.51;100.00;102047.28;5114584;28;20485;-69
2023/11/23 06:09:17;;;;;;;20.42;5.90;;;12.90;99.90;;;13.24;100.00;102160.16;5114014;28;20569;-69
2023/11/23 06:11:45;;;;;;;16.00;5.47;;;12.90;99.90;;;13.26;100.00;102160.16;5113939;28;20138;-69
2023/11/23 06:14:14;;;;;;;22.20;5.63;;;12.90;99.90;;;13.24;100.00;102157.50;5113942;28;20036;-69
2023/11/23 06:16:42;;;;;;;21.13;5.60;;;12.90;99.90;;;13.14;100.00;102160.13;5114178;28;20044;-69
2023/11/23 06:19:11;;;;;;;20.85;6.38;;;12.80;99.90;;;13.19;100.00;102151.28;5113193;28;20100;-69
2023/11/23 06:21:39;;;;;;;22.30;6.10;;;12.80;99.90;;;13.16;100.00;102155.69;5114377;28;20065;-69
2023/11/23 06:24:09;;;;;;;18.85;6.10;;;12.80;99.90;;;13.14;100.00;102155.66;5113985;28;20044;-69
2023/11/23 06:26:39;;;;;;;16.55;6.55;;;12.90;99.90;;;13.05;100.00;102126.41;5113683;28;20047;-69
2023/11/23 06:29:07;;;;;;;15.15;5.15;;;12.80;99.90;;;13.18;100.00;102152.16;5113634;28;20534;-69
2023/11/23 06:31:35;;;;;;;19.10;5.43;;;12.90;99.90;;;12.99;100.00;102113.03;5113605;28;20124;-69
2023/11/23 06:34:04;;;;;;;14.75;5.57;;;12.90;99.90;;;13.21;100.00;102146.88;5113613;28;20043;-69
2023/11/23 06:36:33;;;;;;;17.20;5.40;;;12.90;99.90;;;13.21;100.00;102151.28;5113739;28;20071;-69
2023/11/23 06:39:01;;;;;;;18.67;5.70;;;12.80;99.90;;;13.13;100.00;102135.31;5113407;28;20065;-69
2023/11/23 06:41:30;;;;;;;21.90;5.57;;;12.80;99.90;;;13.22;100.00;102135.34;5113229;28;20044;-69
2023/11/23 06:43:59;;;;;;;21.02;6.22;;;12.90;99.90;;;13.19;100.00;102135.34;5113642;28;20135;-69
2023/11/23 06:46:28;;;;;;;18.60;5.05;;;12.90;99.90;;;13.17;100.00;102138.84;5113611;28;20071;-69
2023/11/23 06:48:57;;;;;;;15.73;5.22;;;12.90;99.90;;;12.97;100.00;102108.63;5113287;28;20126;-69
2023/11/23 06:51:26;;;;;;;16.75;5.50;;;12.90;99.90;;;13.14;100.00;102144.16;5113283;28;20035;-69
2023/11/23 06:53:54;;;;;;;13.50;5.25;;;12.90;99.90;;;13.10;100.00;102143.28;5095316;28;20051;-69
2023/11/23 06:56:22;;;;;;;19.63;5.93;;;12.80;99.90;;;13.12;100.00;102143.28;5113116;28;20040;-69
2023/11/23 06:58:52;;;;;;;19.88;5.72;;;12.80;99.90;;;13.09;100.00;102149.44;5113165;28;20082;-69
2023/11/23 07:01:22;;;;;;;23.45;5.72;;;12.80;99.90;;;13.10;100.00;102148.59;5113089;28;20535;-69
2023/11/23 07:03:50;;;;;;;;;;;12.80;99.90;;;13.16;100.00;102137.97;5113801;28;20132;-70
2023/11/23 07:06:23;;;;;;;22.92;6.55;;;12.90;99.90;;;13.21;100.00;102136.25;5113215;28;19927;-69
2023/11/23 07:08:52;;;;;;;16.15;5.20;;;12.80;99.90;;;13.26;100.00;102134.47;5113243;28;20035;-70
2023/11/23 07:11:20;;;;;;;19.90;6.20;;;12.90;99.90;;;12.43;100.00;102010.94;5094980;28;20040;-69
2023/11/23 07:13:49;;;;;;;16.67;5.60;;;12.90;99.90;;;13.30;100.00;102141.59;5112948;28;20053;-69
2023/11/23 07:16:18;;;;;;;13.25;5.63;;;12.90;99.90;;;13.31;100.00;102143.38;5112753;28;20035;-70
2023/11/23 07:18:48;;;;;;;18.25;5.85;;;13.00;99.90;;;13.30;100.00;102140.69;5112707;28;20086;-69
2023/11/23 07:21:17;;;;;;;21.70;6.20;;;13.00;99.90;;;13.32;100.00;102147.81;5112821;28;20039;-69
2023/11/23 07:23:45;;;;;;;14.40;5.28;;;13.00;99.90;;;13.43;100.00;102158.50;5113083;28;20040;-69
2023/11/23 07:26:14;;;;;;;21.35;6.13;;;13.10;99.90;;;13.47;100.00;102155.84;5112760;28;20122;-68
2023/11/23 07:28:42;;;;;;;16.27;5.60;;;13.10;99.90;;;13.43;100.00;102163.81;5113198;28;20079;-69
2023/11/23 07:31:10;;;;;;;15.27;5.20;;;13.10;99.90;;;13.50;100.00;102165.59;5116415;28;20066;-69
2023/11/23 07:33:39;;;;;;;25.80;6.70;;;13.20;99.90;;;13.46;100.00;102164.72;5117516;28;20036;-69
2023/11/23 07:36:10;;;;;;;21.20;6.30;;;13.20;99.90;;;13.44;100.00;102154.94;5116901;28;20115;-69
2023/11/23 07:38:39;;;;;;;18.40;5.88;;;13.20;99.90;;;13.56;100.00;102155.91;5117054;28;20048;-69
2023/11/23 07:41:10;;;;;;;19.98;6.28;;;13.30;99.90;;;13.72;100.00;102153.28;5117251;28;20097;-69
2023/11/23 07:43:39;;;;;;;19.75;5.75;;;13.40;99.90;;;13.89;100.00;102152.47;5116655;28;20096;-69
2023/11/23 07:46:07;;;;;;;19.00;6.07;;;13.50;99.90;;;14.04;100.00;102144.50;5116576;28;20096;-69
2023/11/23 07:48:36;;;;;;;15.90;5.85;;;13.70;99.90;;;14.22;100.00;102143.66;5116838;28;20130;-69
2023/11/23 07:51:04;;;;;;;18.42;6.40;;;13.90;99.90;;;14.43;100.00;102133.03;5116987;28;20036;-68
2023/11/23 07:53:34;;;;;;;18.30;6.45;;;14.10;99.90;;;14.50;100.00;102150.78;5116564;28;20048;-69
2023/11/23 07:56:02;;;;;;;20.58;5.88;;;14.20;99.90;;;14.74;100.00;102152.56;5116529;28;20047;-69
2023/11/23 07:58:31;;;;;;;16.52;5.78;;;14.40;99.90;;;14.97;99.86;102145.41;5116530;28;20087;-68
2023/11/23 08:00:59;;;;;;;16.77;5.53;;;14.60;99.90;;;15.24;98.97;102134.69;5116401;28;20047;-69
2023/11/23 08:03:27;;;;;;;16.38;5.35;;;14.90;99.90;;;15.57;97.29;102137.25;5116466;28;20489;-68
2023/11/23 08:05:56;;;;;;;14.77;5.13;;;15.30;99.90;;;15.59;94.50;102145.25;5116431;28;20051;-69
2023/11/23 08:08:24;;;;;;;16.60;5.15;;;15.40;99.90;;;15.52;93.69;102138.19;5116860;28;20043;-68
2023/11/23 08:10:54;;;;;;;18.15;6.10;;;15.30;99.90;;;15.49;93.18;102149.72;5098318;28;20058;-69
2023/11/23 08:13:22;;;;;;;12.55;5.18;;;15.30;99.90;;;15.23;93.27;102114.25;5116218;28;20525;-69
2023/11/23 08:15:51;;;;;;;15.02;5.13;;;15.20;99.90;;;15.42;93.29;102153.34;5116517;28;20051;-69
2023/11/23 08:18:19;;;;;;;16.30;4.93;;;15.20;99.90;;;15.44;93.28;102155.97;5116038;28;20044;-69
2023/11/23 08:20:47;;;;;;;14.73;5.50;;;15.10;99.90;;;15.47;93.25;102148.84;5116183;28;20114;-68
2023/11/23 08:23:16;;;;;;;14.25;4.80;;;15.20;99.90;;;15.30;93.21;102142.66;5116286;28;20094;-69
2023/11/23 08:25:44;;;;;;;13.70;4.95;;;15.10;99.90;;;15.38;94.04;102131.09;5116354;28;20537;-68
2023/11/23 08:28:16;;;;;;;19.67;5.55;;;15.10;99.90;;;15.66;94.50;102120.34;5097639;28;20075;-68
2023/11/23 08:30:47;;;;;;;14.38;5.32;;;15.30;99.90;;;15.73;92.96;102114.06;5115936;28;20055;-69
2023/11/23 08:33:15;;;;;;;15.68;5.55;;;15.50;99.90;;;16.03;92.65;102105.84;5115893;28;20039;-69
2023/11/23 08:35:44;;;;;;;17.33;5.13;;;15.70;99.90;;;16.30;91.39;102116.31;5097736;28;20044;-68
2023/11/23 08:38:13;;;;;;;13.70;5.63;;;15.90;99.90;;;16.64;89.72;102116.97;5097682;28;20130;-68
2023/11/23 08:40:42;;;;;;;15.25;4.95;;;16.30;99.90;;;16.77;87.54;102119.50;5098025;28;20409;-69
2023/11/23 08:43:12;;;;;;;16.35;5.30;;;16.50;99.90;;;16.71;86.62;102124.91;5114811;28;20067;-68
2023/11/23 08:45:41;;;;;;;14.97;4.87;;;16.50;99.90;;;16.76;85.53;102122.22;5115586;28;20618;-69
2023/11/23 08:48:10;;;;;;;12.85;4.95;;;16.50;99.90;;;16.97;85.48;102111.28;5115863;28;20039;-69
2023/11/23 08:50:38;;;;;;;13.45;5.68;;;16.70;99.90;;;17.19;84.34;102101.25;5115819;28;20036;-69
2023/11/23 08:53:07;;;;;;;16.85;5.00;;;16.90;99.90;;;17.45;83.29;102107.16;5115442;28;20058;-69
2023/11/23 08:55:35;;;;;;;17.58;5.20;;;17.20;99.90;;;17.64;81.93;102111.38;5115405;28;20097;-68
2023/11/23 08:58:05;;;;;;;17.45;5.13;;;17.40;99.90;;;17.80;80.46;102104.91;5115289;28;20075;-68
2023/11/23 09:00:33;;;;;;;13.05;5.43;;;17.60;99.90;;;17.67;80.07;102116.72;5115584;28;20107;-69
2023/11/23 09:03:04;;;;;;;11.90;4.68;;;17.50;99.90;;;17.45;80.72;102115.16;5115337;28;20523;-69
2023/11/23 09:05:33;;;;;;;14.45;5.28;;;17.30;99.90;;;17.46;81.20;102117.81;5096984;28;20044;-69
2023/11/23 09:08:06;;;;;;;12.35;4.95;;;17.20;99.90;;;17.32;81.92;102110.88;5115204;28;20118;-69
2023/11/23 09:10:35;;;;;;;13.25;4.82;;;17.10;99.90;;;17.50;81.85;102070.56;5115216;28;20040;-69
2023/11/23 09:13:05;;;;;;;17.02;4.88;;;17.20;99.90;;;17.70;81.13;102079.19;5115169;28;20039;-69
2023/11/23 09:15:33;;;;;;;12.45;4.60;;;17.40;99.90;;;17.63;80.40;102086.44;5115661;28;20064;-69
2023/11/23 09:18:03;;;;;;;13.00;5.30;;;17.40;99.90;;;17.83;79.96;102096.81;5115083;28;20507;-69
2023/11/23 09:20:32;;;;;;;16.75;4.78;;;17.50;99.90;;;17.69;79.28;102102.38;5115248;28;20044;-69
2023/11/23 09:23:03;;;;;;;13.10;4.80;;;17.50;99.90;;;17.66;79.28;102104.22;5115010;28;20043;-69
2023/11/23 09:25:33;;;;;;;14.23;4.70;;;17.40;99.90;;;17.44;78.74;102081.31;5115368;28;20044;-69
2023/11/23 09:28:02;;;;;;;14.60;4.63;;;17.40;99.90;;;17.38;79.90;102086.75;5096832;28;20047;-69
2023/11/23 09:30:31;;;;;;;11.95;4.82;;;17.20;99.90;;;17.23;80.24;102087.78;5114744;28;20051;-69
2023/11/23 09:32:59;;;;;;;10.85;4.65;;;17.00;99.90;;;17.28;80.82;102079.72;5114747;28;20036;-69
2023/11/23 09:35:29;;;;;;;15.60;4.75;;;17.00;99.90;;;17.48;80.61;102077.69;5114664;28;20508;-69
2023/11/23 09:37:58;;;;;;;16.27;4.63;;;17.20;99.90;;;17.42;79.57;102080.44;5114640;28;20059;-69
2023/11/23 09:40:29;;;;;;;12.55;5.07;;;17.20;99.90;;;17.22;79.70;102079.81;5096270;28;20709;-69
2023/11/23 09:42:58;;;;;;;16.58;4.70;;;17.10;99.90;;;17.02;81.38;102072.91;5115115;28;20062;-69
2023/11/23 09:45:26;;;;;;;11.57;4.80;;;16.80;99.90;;;16.96;81.59;102067.63;5114403;28;20511;-69
2023/11/23 09:47:56;;;;;;;14.35;4.68;;;16.80;99.90;;;16.95;81.90;102054.28;5114160;28;20097;-70
2023/11/23 09:50:30;;;;;;;12.35;4.90;;;16.70;99.90;;;16.89;82.22;102038.31;5114386;28;20043;-69
2023/11/23 09:53:06;;;;;;;16.48;5.43;;;16.60;99.90;;;16.63;82.90;102033.25;5114359;28;20062;-69
2023/11/23 09:55:34;;;;;;;11.73;5.03;;;16.60;99.90;;;16.85;83.36;102053.50;5114836;28;20047;-69
2023/11/23 09:58:04;;;;;;;19.30;5.88;;;16.60;99.90;;;16.54;83.60;102045.81;5114165;28;20289;-69
2023/11/23 10:00:35;;;;;;;16.15;5.55;;;16.30;99.90;;;16.40;84.47;102063.72;5114423;28;20082;-69
2023/11/23 10:03:07;;;;;;;;;;;16.20;99.90;;;16.36;84.88;102046.84;5114907;28;20044;-69
2023/11/23 10:05:39;;;;;;;17.15;5.15;;;16.10;99.90;;;16.39;84.94;102054.84;5114627;28;19943;-69
2023/11/23 10:08:07;;;;;;;14.43;4.95;;;16.20;99.90;;;16.22;85.36;102056.75;5114084;28;20101;-69
2023/11/23 10:10:38;;;;;;;11.15;4.65;;;16.00;99.90;;;16.28;85.25;102062.94;5113998;28;20063;-69